createdAt,value
2017-04-09T00:00:53.361Z,76.86
2017-04-09T00:01:53.351Z,76.96
2017-04-09T00:02:53.345Z,76.39
2017-04-09T00:03:53.338Z,76.96
2017-04-09T00:04:53.334Z,76.77
2017-04-09T00:05:53.321Z,76.96
2017-04-09T00:06:53.314Z,76.73
2017-04-09T00:07:53.308Z,77.2
2017-04-09T00:08:53.300Z,77.59
2017-04-09T00:09:53.293Z,77.69
2017-04-09T00:10:53.286Z,78.35
2017-04-09T00:11:53.278Z,78.64
2017-04-09T00:12:53.272Z,78.64
2017-04-09T00:13:53.265Z,78.78
2017-04-09T00:14:53.257Z,79.36
2017-04-09T00:15:53.250Z,78.98
2017-04-09T00:16:53.241Z,79.36
2017-04-09T00:17:53.237Z,79.93
2017-04-09T00:18:53.224Z,79.51
2017-04-09T00:19:53.218Z,80.27
2017-04-09T00:20:53.214Z,80.27
2017-04-09T00:21:53.207Z,80.75
2017-04-09T00:22:53.197Z,81.03
2017-04-09T00:23:53.193Z,80.84
2017-04-09T00:24:53.178Z,81.03
2017-04-09T00:25:53.171Z,81.13
2017-04-09T00:26:53.169Z,81.41
2017-04-09T00:27:53.154Z,81.56
2017-04-09T00:28:53.146Z,81.95
2017-04-09T00:29:53.139Z,82.51
2017-04-09T00:30:53.132Z,82.42
2017-04-09T00:31:53.122Z,82.7
2017-04-09T00:32:53.125Z,83.09
2017-04-09T00:33:53.105Z,83.09
2017-04-09T00:34:53.098Z,83.75
2017-04-09T00:35:53.089Z,83.37
2017-04-09T00:36:53.080Z,83.94
2017-04-09T00:37:53.072Z,84.42
2017-04-09T00:38:53.064Z,84.8
2017-04-09T00:39:53.057Z,84.47
2017-04-09T00:40:53.046Z,84.61
2017-04-09T00:41:53.039Z,84.95
2017-04-09T00:42:53.032Z,85.18
2017-04-09T00:43:53.021Z,85.18
2017-04-09T00:44:53.012Z,85.61
2017-04-09T00:45:53.004Z,85.24
2017-04-09T00:46:52.998Z,85.47
2017-04-09T00:47:52.985Z,85.37
2017-04-09T00:48:52.978Z,85.85
2017-04-09T00:49:52.972Z,85.56
2017-04-09T00:50:52.962Z,86.22
2017-04-09T00:51:52.952Z,86.13
2017-04-09T00:52:52.947Z,86.9
2017-04-09T00:53:52.935Z,86.51
2017-04-09T00:54:52.926Z,86.7
2017-04-09T00:55:52.917Z,86.99
2017-04-09T00:56:52.909Z,86.99
2017-04-09T00:57:52.900Z,86.7
2017-04-09T00:58:52.890Z,86.61
2017-04-09T00:59:52.882Z,86.51
2017-04-09T01:00:52.879Z,86.9
2017-04-09T01:01:52.865Z,86.61
2017-04-09T01:02:53.107Z,86.61
2017-04-09T01:03:52.848Z,86.8
2017-04-09T01:04:52.839Z,86.61
2017-04-09T01:05:52.831Z,86.32
2017-04-09T01:06:52.822Z,86.32
2017-04-09T01:07:53.062Z,86.61
2017-04-09T01:08:52.805Z,86.61
2017-04-09T01:09:52.794Z,86.7
2017-04-09T01:10:52.788Z,86.13
2017-04-09T01:11:52.777Z,86.22
2017-04-09T01:12:52.772Z,86.22
2017-04-09T01:13:52.764Z,86.32
2017-04-09T01:14:52.753Z,86.13
2017-04-09T01:15:52.743Z,85.94
2017-04-09T01:16:52.736Z,85.89
2017-04-09T01:17:52.977Z,86.08
2017-04-09T01:18:52.723Z,85.8
2017-04-09T01:19:52.718Z,85.89
2017-04-09T01:20:52.705Z,85.41
2017-04-09T01:21:52.695Z,85.41
2017-04-09T01:22:53.039Z,85.6
2017-04-09T01:23:52.677Z,85.03
2017-04-09T01:24:52.669Z,85.22
2017-04-09T01:25:52.659Z,85.13
2017-04-09T01:26:52.652Z,84.84
2017-04-09T01:27:52.942Z,84.84
2017-04-09T01:28:52.635Z,84.46
2017-04-09T01:29:52.629Z,84.75
2017-04-09T01:30:52.619Z,84.56
2017-04-09T01:31:52.609Z,84.56
2017-04-09T01:32:52.854Z,84.46
2017-04-09T01:33:52.595Z,84.36
2017-04-09T01:34:52.585Z,84.27
2017-04-09T01:35:52.577Z,84.56
2017-04-09T01:36:52.604Z,84.31
2017-04-09T01:37:52.909Z,83.98
2017-04-09T01:38:52.551Z,84.27
2017-04-09T01:39:52.543Z,84.22
2017-04-09T01:40:52.536Z,84.5
2017-04-09T01:41:52.530Z,83.74
2017-04-09T01:42:52.771Z,83.84
2017-04-09T01:43:52.512Z,84.03
2017-04-09T01:44:52.505Z,83.65
2017-04-09T01:45:52.495Z,83.26
2017-04-09T01:46:52.487Z,83.55
2017-04-09T01:47:52.731Z,83.45
2017-04-09T01:48:52.471Z,83.36
2017-04-09T01:49:52.461Z,82.89
2017-04-09T01:50:52.454Z,83.17
2017-04-09T01:51:52.451Z,83.17
2017-04-09T01:52:52.692Z,83.17
2017-04-09T01:53:52.430Z,82.98
2017-04-09T01:54:52.422Z,82.79
2017-04-09T01:55:52.414Z,83.07
2017-04-09T01:56:52.412Z,83.07
2017-04-09T01:57:52.700Z,83.07
2017-04-09T01:58:52.390Z,82.98
2017-04-09T01:59:52.383Z,83.26
2017-04-09T02:00:52.376Z,82.98
2017-04-09T02:01:52.365Z,83.07
2017-04-09T02:02:52.609Z,82.41
2017-04-09T02:03:52.350Z,82.6
2017-04-09T02:04:52.344Z,82.5
2017-04-09T02:05:52.333Z,82.31
2017-04-09T02:06:52.332Z,82.69
2017-04-09T02:07:52.017Z,82.31
2017-04-09T02:08:52.318Z,82.03
2017-04-09T02:09:52.301Z,82.12
2017-04-09T02:10:52.295Z,82.12
2017-04-09T02:11:52.287Z,82.03
2017-04-09T02:12:52.279Z,82.31
2017-04-09T02:13:52.272Z,81.55
2017-04-09T02:14:52.263Z,81.65
2017-04-09T02:15:52.255Z,81.65
2017-04-09T02:16:52.247Z,81.65
2017-04-09T02:17:52.240Z,81.65
2017-04-09T02:18:52.234Z,81.65
2017-04-09T02:19:52.225Z,82.31
2017-04-09T02:20:52.217Z,81.65
2017-04-09T02:21:52.208Z,81.74
2017-04-09T02:22:52.198Z,81.74
2017-04-09T02:23:52.190Z,81.55
2017-04-09T02:24:52.184Z,81.74
2017-04-09T02:25:52.176Z,81.74
2017-04-09T02:26:52.167Z,81.65
2017-04-09T02:27:52.160Z,81.46
2017-04-09T02:28:52.152Z,81.46
2017-04-09T02:29:52.144Z,81.36
2017-04-09T02:30:52.136Z,81.4
2017-04-09T02:31:52.131Z,81.49
2017-04-09T02:32:52.121Z,81.78
2017-04-09T02:33:52.113Z,81.65
2017-04-09T02:34:52.106Z,81.59
2017-04-09T02:35:52.097Z,81.65
2017-04-09T02:36:52.090Z,81.49
2017-04-09T02:37:52.083Z,81.59
2017-04-09T02:38:52.076Z,81.78
2017-04-09T02:39:52.068Z,81.59
2017-04-09T02:40:52.058Z,81.49
2017-04-09T02:41:52.050Z,81.21
2017-04-09T02:42:52.043Z,81.12
2017-04-09T02:43:52.037Z,81.4
2017-04-09T02:44:52.028Z,81.49
2017-04-09T02:45:52.017Z,81.12
2017-04-09T02:46:52.010Z,81.74
2017-04-09T02:47:52.004Z,81.55
2017-04-09T02:48:52.003Z,81.36
2017-04-09T02:49:51.987Z,81.4
2017-04-09T02:50:51.980Z,81.46
2017-04-09T02:51:51.973Z,81.78
2017-04-09T02:52:51.965Z,81.74
2017-04-09T02:53:51.958Z,81.78
2017-04-09T02:54:51.950Z,81.55
2017-04-09T02:55:51.941Z,81.46
2017-04-09T02:56:51.936Z,81.46
2017-04-09T02:57:51.926Z,81.55
2017-04-09T02:58:51.919Z,81.68
2017-04-09T02:59:51.911Z,81.17
2017-04-09T03:00:51.903Z,81.55
2017-04-09T03:01:51.898Z,81.55
2017-04-09T03:02:51.892Z,81.74
2017-04-09T03:03:51.884Z,81.46
2017-04-09T03:04:51.871Z,81.17
2017-04-09T03:05:51.865Z,81.74
2017-04-09T03:06:51.858Z,81.55
2017-04-09T03:07:51.852Z,81.55
2017-04-09T03:08:51.841Z,81.59
2017-04-09T03:09:51.834Z,81.55
2017-04-09T03:10:51.828Z,81.46
2017-04-09T03:11:51.820Z,81.55
2017-04-09T03:12:51.812Z,81.78
2017-04-09T03:13:51.803Z,81.74
2017-04-09T03:14:51.797Z,81.74
2017-04-09T03:15:51.786Z,81.74
2017-04-09T03:16:51.779Z,81.55
2017-04-09T03:17:51.772Z,81.36
2017-04-09T03:18:51.764Z,81.26
2017-04-09T03:19:51.758Z,81.65
2017-04-09T03:20:51.749Z,82.03
2017-04-09T03:21:51.739Z,82.17
2017-04-09T03:22:51.735Z,82.03
2017-04-09T03:23:51.729Z,82.03
2017-04-09T03:24:51.717Z,81.97
2017-04-09T03:25:51.711Z,81.93
2017-04-09T03:26:51.702Z,81.93
2017-04-09T03:27:51.697Z,82.12
2017-04-09T03:28:51.691Z,82.12
2017-04-09T03:29:51.677Z,81.93
2017-04-09T03:30:51.669Z,82.31
2017-04-09T03:31:51.662Z,82.03
2017-04-09T03:32:51.656Z,82.07
2017-04-09T03:33:51.647Z,82.31
2017-04-09T03:34:51.639Z,82.35
2017-04-09T03:35:51.634Z,82.26
2017-04-09T03:36:51.623Z,82.35
2017-04-09T03:37:51.615Z,82.35
2017-04-09T03:38:51.607Z,81.68
2017-04-09T03:39:51.598Z,81.68
2017-04-09T03:40:51.591Z,81.68
2017-04-09T03:41:51.582Z,81.78
2017-04-09T03:42:51.577Z,81.78
2017-04-09T03:43:51.264Z,81.78
2017-04-09T03:44:51.560Z,81.59
2017-04-09T03:45:51.551Z,81.68
2017-04-09T03:46:51.543Z,81.4
2017-04-09T03:47:51.537Z,81.78
2017-04-09T03:48:51.529Z,81.59
2017-04-09T03:49:51.520Z,81.97
2017-04-09T03:50:51.512Z,82.03
2017-04-09T03:51:51.508Z,82.17
2017-04-09T03:52:51.497Z,82.17
2017-04-09T03:53:51.488Z,81.97
2017-04-09T03:54:51.480Z,81.97
2017-04-09T03:55:51.472Z,82.26
2017-04-09T03:56:51.465Z,82.17
2017-04-09T03:57:51.456Z,81.97
2017-04-09T03:58:51.448Z,82.17
2017-04-09T03:59:51.442Z,82.07
2017-04-09T04:00:51.439Z,81.97
2017-04-09T04:01:51.425Z,82.07
2017-04-09T04:02:51.420Z,81.68
2017-04-09T04:03:51.413Z,81.59
2017-04-09T04:04:51.403Z,81.59
2017-04-09T04:05:51.395Z,81.59
2017-04-09T04:06:51.386Z,81.59
2017-04-09T04:07:51.381Z,81.59
2017-04-09T04:08:51.374Z,81.88
2017-04-09T04:09:51.364Z,81.88
2017-04-09T04:10:51.362Z,81.68
2017-04-09T04:11:51.348Z,82.26
2017-04-09T04:12:51.339Z,82.45
2017-04-09T04:13:51.332Z,82.26
2017-04-09T04:14:51.325Z,82.07
2017-04-09T04:15:51.320Z,82.17
2017-04-09T04:16:51.311Z,81.88
2017-04-09T04:17:51.307Z,82.17
2017-04-09T04:18:51.299Z,82.26
2017-04-09T04:19:51.289Z,82.26
2017-04-09T04:20:50.975Z,82.26
2017-04-09T04:21:51.273Z,82.54
2017-04-09T04:22:51.263Z,82.45
2017-04-09T04:23:51.256Z,82.17
2017-04-09T04:24:51.248Z,81.97
2017-04-09T04:25:51.242Z,82.17
2017-04-09T04:26:51.235Z,82.07
2017-04-09T04:27:51.224Z,82.17
2017-04-09T04:28:51.221Z,82.17
2017-04-09T04:29:51.210Z,82.07
2017-04-09T04:30:51.201Z,82.17
2017-04-09T04:31:51.195Z,82.17
2017-04-09T04:32:51.186Z,82.17
2017-04-09T04:33:51.221Z,82.35
2017-04-09T04:34:51.171Z,82.07
2017-04-09T04:35:51.164Z,81.97
2017-04-09T04:36:51.155Z,81.97
2017-04-09T04:37:51.147Z,82.17
2017-04-09T04:38:51.142Z,82.07
2017-04-09T04:39:51.131Z,82.26
2017-04-09T04:40:51.126Z,82.26
2017-04-09T04:41:51.119Z,81.78
2017-04-09T04:42:51.110Z,82.26
2017-04-09T04:43:51.104Z,82.07
2017-04-09T04:44:51.094Z,82.07
2017-04-09T04:45:51.086Z,82.07
2017-04-09T04:46:51.079Z,82.26
2017-04-09T04:47:51.070Z,81.78
2017-04-09T04:48:51.067Z,81.88
2017-04-09T04:49:51.057Z,81.88
2017-04-09T04:50:51.047Z,81.97
2017-04-09T04:51:51.039Z,81.97
2017-04-09T04:52:51.030Z,81.68
2017-04-09T04:53:51.024Z,81.68
2017-04-09T04:54:51.015Z,81.78
2017-04-09T04:55:51.009Z,81.68
2017-04-09T04:56:51.001Z,81.68
2017-04-09T04:57:50.993Z,81.68
2017-04-09T04:58:50.985Z,81.78
2017-04-09T04:59:50.978Z,81.49
2017-04-09T05:00:50.969Z,81.4
2017-04-09T05:01:50.963Z,81.49
2017-04-09T05:02:50.955Z,81.59
2017-04-09T05:03:50.946Z,81.49
2017-04-09T05:04:50.943Z,81.49
2017-04-09T05:05:50.931Z,81.59
2017-04-09T05:06:50.931Z,81.88
2017-04-09T05:07:50.917Z,81.68
2017-04-09T05:08:50.942Z,81.49
2017-04-09T05:09:50.900Z,81.4
2017-04-09T05:10:50.894Z,81.3
2017-04-09T05:11:50.886Z,81.4
2017-04-09T05:12:50.886Z,81.21
2017-04-09T05:13:51.177Z,81.4
2017-04-09T05:14:50.861Z,81.49
2017-04-09T05:15:50.855Z,81.3
2017-04-09T05:16:50.846Z,81.49
2017-04-09T05:17:50.842Z,81.49
2017-04-09T05:18:51.083Z,81.3
2017-04-09T05:19:50.827Z,81.21
2017-04-09T05:20:50.819Z,81.59
2017-04-09T05:21:50.810Z,81.3
2017-04-09T05:22:50.804Z,81.49
2017-04-09T05:23:51.082Z,81.3
2017-04-09T05:24:50.786Z,81.59
2017-04-09T05:25:50.779Z,80.77
2017-04-09T05:26:50.772Z,80.77
2017-04-09T05:27:50.764Z,80.77
2017-04-09T05:28:51.057Z,80.77
2017-04-09T05:29:50.751Z,81.25
2017-04-09T05:30:50.742Z,81.06
2017-04-09T05:31:50.736Z,80.96
2017-04-09T05:32:50.726Z,80.87
2017-04-09T05:33:50.970Z,80.68
2017-04-09T05:34:50.712Z,80.68
2017-04-09T05:35:50.705Z,80.77
2017-04-09T05:36:50.698Z,80.68
2017-04-09T05:37:50.690Z,80.87
2017-04-09T05:38:51.038Z,81.06
2017-04-09T05:39:50.678Z,80.3
2017-04-09T05:40:50.668Z,80.49
2017-04-09T05:41:50.661Z,80.3
2017-04-09T05:42:50.656Z,79.91
2017-04-09T05:43:50.999Z,80.3
2017-04-09T05:44:50.641Z,79.91
2017-04-09T05:45:50.634Z,80.3
2017-04-09T05:46:50.627Z,80.05
2017-04-09T05:47:50.618Z,79.38
2017-04-09T05:48:50.867Z,79.1
2017-04-09T05:49:50.610Z,79.38
2017-04-09T05:50:50.598Z,79.48
2017-04-09T05:51:50.591Z,79.38
2017-04-09T05:52:50.583Z,79.38
2017-04-09T05:53:50.831Z,78.91
2017-04-09T05:54:50.571Z,78.62
2017-04-09T05:55:50.564Z,78.05
2017-04-09T05:56:50.558Z,78.52
2017-04-09T05:57:50.550Z,78.14
2017-04-09T05:58:50.792Z,78.33
2017-04-09T05:59:50.535Z,77.95
2017-04-09T06:00:50.529Z,77.19
2017-04-09T06:01:50.524Z,78.14
2017-04-09T06:02:50.518Z,78.14
2017-04-09T06:03:50.815Z,77.86
2017-04-09T06:04:50.505Z,78.23
2017-04-09T06:05:50.498Z,77.51
2017-04-09T06:06:50.490Z,77.32
2017-04-09T06:07:50.487Z,77.51
2017-04-09T06:08:50.829Z,77.42
2017-04-09T06:09:50.473Z,76.84
2017-04-09T06:10:50.470Z,76.84
2017-04-09T06:11:50.460Z,76.27
2017-04-09T06:12:50.451Z,76.37
2017-04-09T06:13:50.704Z,76.56
2017-04-09T06:14:50.440Z,76.18
2017-04-09T06:15:50.432Z,76.56
2017-04-09T06:16:50.426Z,76.31
2017-04-09T06:17:50.451Z,75.93
2017-04-09T06:18:50.723Z,75.74
2017-04-09T06:19:50.448Z,75.64
2017-04-09T06:20:50.403Z,75.26
2017-04-09T06:21:50.397Z,74.69
2017-04-09T06:22:50.393Z,74.78
2017-04-09T06:23:50.636Z,74.34
2017-04-09T06:24:50.380Z,74.05
2017-04-09T06:25:50.372Z,73.67
2017-04-09T06:26:50.368Z,73.29
2017-04-09T06:27:50.363Z,73.1
2017-04-09T06:28:50.609Z,73.04
2017-04-09T06:29:50.354Z,72.94
2017-04-09T06:30:50.345Z,72.47
2017-04-09T06:31:50.345Z,71.61
2017-04-09T06:32:50.333Z,71.8
2017-04-09T06:33:50.025Z,71.22
2017-04-09T06:34:50.321Z,70.84
2017-04-09T06:35:50.319Z,71.03
2017-04-09T06:36:50.314Z,70.59
2017-04-09T06:37:50.307Z,70.11
2017-04-09T06:38:50.301Z,69.15
2017-04-09T06:39:50.301Z,68.68
2017-04-09T06:40:50.293Z,68.58
2017-04-09T06:41:50.290Z,68.77
2017-04-09T06:42:50.292Z,68.68
2017-04-09T06:43:50.284Z,68.2
2017-04-09T06:44:50.277Z,67.72
2017-04-09T06:45:50.266Z,68.04
2017-04-09T06:46:50.262Z,67.56
2017-04-09T06:47:50.261Z,67.76
2017-04-09T06:48:50.254Z,67.08
2017-04-09T06:49:50.250Z,66.7
2017-04-09T06:50:50.244Z,65.84
2017-04-09T06:51:50.240Z,65.68
2017-04-09T06:52:50.245Z,65.94
2017-04-09T06:53:50.232Z,65.58
2017-04-09T06:54:50.229Z,65.11
2017-04-09T06:55:50.221Z,65.68
2017-04-09T06:56:50.217Z,65.3
2017-04-09T06:57:50.216Z,64.92
2017-04-09T06:58:50.211Z,64.18
2017-04-09T06:59:50.206Z,64.28
2017-04-09T07:00:50.201Z,64.09
2017-04-09T07:01:50.197Z,63.7
2017-04-09T07:02:50.197Z,62.84
2017-04-09T07:03:50.192Z,63.22
2017-04-09T07:04:50.184Z,62.59
2017-04-09T07:05:50.185Z,62.2
2017-04-09T07:06:50.177Z,62.1
2017-04-09T07:07:50.175Z,61.91
2017-04-09T07:08:50.170Z,62.01
2017-04-09T07:09:50.175Z,61.66
2017-04-09T07:10:50.162Z,61.27
2017-04-09T07:11:50.159Z,60.5
2017-04-09T07:12:50.157Z,60.22
2017-04-09T07:13:50.153Z,59.93
2017-04-09T07:14:50.149Z,59.45
2017-04-09T07:15:50.146Z,59.26
2017-04-09T07:16:50.142Z,59.06
2017-04-09T07:17:50.140Z,59.36
2017-04-09T07:18:50.134Z,58.78
2017-04-09T07:19:50.133Z,58.91
2017-04-09T07:20:50.132Z,59.06
2017-04-09T07:21:50.143Z,59
2017-04-09T07:22:50.124Z,59
2017-04-09T07:23:50.129Z,59
2017-04-09T07:24:50.117Z,59.09
2017-04-09T07:25:50.115Z,59.09
2017-04-09T07:26:50.112Z,59.19
2017-04-09T07:27:50.110Z,58.71
2017-04-09T07:28:50.108Z,57.95
2017-04-09T07:29:50.109Z,58.07
2017-04-09T07:30:50.100Z,57.68
2017-04-09T07:31:50.097Z,56.53
2017-04-09T07:32:50.096Z,56.82
2017-04-09T07:33:50.093Z,56.92
2017-04-09T07:34:50.090Z,56.73
2017-04-09T07:35:50.087Z,57.01
2017-04-09T07:36:50.091Z,57.14
2017-04-09T07:37:50.083Z,56.46
2017-04-09T07:38:50.082Z,56.18
2017-04-09T07:39:50.083Z,56.46
2017-04-09T07:40:50.078Z,55.82
2017-04-09T07:41:50.076Z,55.44
2017-04-09T07:42:50.077Z,55.05
2017-04-09T07:43:50.076Z,54.47
2017-04-09T07:44:50.070Z,54.09
2017-04-09T07:45:50.069Z,54.22
2017-04-09T07:46:50.068Z,53.16
2017-04-09T07:47:50.066Z,52.39
2017-04-09T07:48:50.066Z,52.1
2017-04-09T07:49:50.063Z,52.2
2017-04-09T07:50:50.063Z,52.03
2017-04-09T07:51:50.059Z,52.32
2017-04-09T07:52:50.059Z,51.74
2017-04-09T07:53:50.058Z,51.55
2017-04-09T07:54:50.057Z,50.87
2017-04-09T07:55:50.058Z,51.07
2017-04-09T07:56:50.054Z,50.49
2017-04-09T07:57:50.054Z,50.32
2017-04-09T07:58:50.057Z,50.51
2017-04-09T07:59:50.054Z,50.61
2017-04-09T08:00:50.052Z,50.32
2017-04-09T08:01:50.052Z,50.32
2017-04-09T08:02:50.051Z,50.04
2017-04-09T08:03:50.052Z,49.74
2017-04-09T08:04:50.054Z,49.48
2017-04-09T08:05:50.049Z,49.19
2017-04-09T08:06:50.081Z,49.38
2017-04-09T08:07:50.048Z,48.9
2017-04-09T08:08:50.051Z,48.52
2017-04-09T08:09:50.048Z,48.44
2017-04-09T08:10:50.047Z,48.16
2017-04-09T08:11:50.083Z,47.87
2017-04-09T08:12:50.049Z,47.49
2017-04-09T08:13:50.046Z,47.7
2017-04-09T08:14:50.047Z,46.83
2017-04-09T08:15:50.048Z,46.64
2017-04-09T08:16:50.047Z,45.87
2017-04-09T08:17:50.048Z,45.77
2017-04-09T08:18:50.049Z,45.77
2017-04-09T08:19:50.054Z,45.39
2017-04-09T08:20:50.050Z,45.39
2017-04-09T08:21:49.748Z,45.48
2017-04-09T08:22:50.051Z,45.31
2017-04-09T08:23:50.054Z,45.31
2017-04-09T08:24:50.052Z,44.93
2017-04-09T08:25:50.054Z,44.64
2017-04-09T08:26:50.060Z,44.18
2017-04-09T08:27:50.059Z,43.89
2017-04-09T08:28:50.057Z,42.73
2017-04-09T08:29:50.059Z,42.83
2017-04-09T08:30:50.060Z,42.73
2017-04-09T08:31:50.062Z,42.83
2017-04-09T08:32:50.062Z,42.44
2017-04-09T08:33:50.066Z,42.46
2017-04-09T08:34:50.067Z,42.56
2017-04-09T08:35:50.068Z,41.98
2017-04-09T08:36:50.069Z,42.08
2017-04-09T08:37:50.073Z,41.69
2017-04-09T08:38:50.077Z,41.3
2017-04-09T08:39:50.077Z,41.13
2017-04-09T08:40:50.084Z,41.03
2017-04-09T08:41:50.083Z,41.13
2017-04-09T08:42:50.083Z,40.75
2017-04-09T08:43:50.085Z,40.45
2017-04-09T08:44:50.088Z,40.07
2017-04-09T08:45:50.089Z,39.87
2017-04-09T08:46:50.091Z,39.59
2017-04-09T08:47:50.094Z,39.01
2017-04-09T08:48:50.098Z,39.29
2017-04-09T08:49:50.099Z,38.91
2017-04-09T08:50:50.101Z,39.39
2017-04-09T08:51:50.106Z,39.01
2017-04-09T08:52:50.108Z,39.11
2017-04-09T08:53:50.108Z,38.81
2017-04-09T08:54:50.112Z,37.95
2017-04-09T08:55:50.462Z,38.14
2017-04-09T08:56:50.118Z,38.6
2017-04-09T08:57:50.120Z,39.18
2017-04-09T08:58:50.123Z,38.79
2017-04-09T08:59:50.126Z,38.89
2017-04-09T09:00:50.136Z,38.78
2017-04-09T09:01:50.130Z,38.79
2017-04-09T09:02:50.131Z,39.09
2017-04-09T09:03:50.136Z,38.02
2017-04-09T09:04:49.840Z,37.45
2017-04-09T09:05:50.140Z,36.88
2017-04-09T09:06:50.144Z,36.5
2017-04-09T09:07:50.145Z,36.59
2017-04-09T09:08:50.149Z,36.79
2017-04-09T09:09:50.153Z,36.69
2017-04-09T09:10:50.153Z,37.17
2017-04-09T09:11:50.159Z,36.98
2017-04-09T09:12:50.163Z,37.17
2017-04-09T09:13:50.164Z,37.27
2017-04-09T09:14:50.168Z,37.27
2017-04-09T09:15:50.170Z,37.56
2017-04-09T09:16:50.174Z,37.46
2017-04-09T09:17:50.178Z,37.17
2017-04-09T09:18:50.178Z,37.46
2017-04-09T09:19:50.182Z,37.65
2017-04-09T09:20:50.184Z,37.17
2017-04-09T09:21:50.189Z,37.08
2017-04-09T09:22:50.191Z,36.01
2017-04-09T09:23:50.194Z,36.67
2017-04-09T09:24:50.196Z,37.25
2017-04-09T09:25:50.202Z,37.45
2017-04-09T09:26:50.206Z,37.54
2017-04-09T09:27:50.203Z,38.2
2017-04-09T09:28:50.206Z,38.49
2017-04-09T09:29:50.210Z,38.01
2017-04-09T09:30:50.208Z,38.2
2017-04-09T09:31:50.211Z,38.2
2017-04-09T09:32:50.222Z,38.46
2017-04-09T09:33:50.215Z,37.7
2017-04-09T09:34:50.219Z,37.31
2017-04-09T09:35:50.220Z,37.12
2017-04-09T09:36:50.227Z,36.44
2017-04-09T09:37:50.223Z,36.63
2017-04-09T09:38:50.225Z,35.77
2017-04-09T09:39:50.227Z,35.58
2017-04-09T09:40:50.231Z,35.86
2017-04-09T09:41:50.231Z,36.17
2017-04-09T09:42:50.231Z,35.88
2017-04-09T09:43:50.239Z,35.69
2017-04-09T09:44:50.236Z,34.53
2017-04-09T09:45:50.240Z,35.02
2017-04-09T09:46:50.242Z,34.94
2017-04-09T09:47:50.241Z,35.71
2017-04-09T09:48:50.242Z,34.16
2017-04-09T09:49:50.247Z,33.02
2017-04-09T09:50:50.246Z,33.22
2017-04-09T09:51:50.249Z,33.12
2017-04-09T09:52:50.253Z,33.31
2017-04-09T09:53:50.254Z,32.64
2017-04-09T09:54:50.294Z,32.24
2017-04-09T09:55:50.286Z,32.06
2017-04-09T09:56:50.259Z,32.34
2017-04-09T09:57:50.263Z,32.06
2017-04-09T09:58:50.264Z,32.06
2017-04-09T09:59:50.267Z,31.57
2017-04-09T10:00:50.269Z,31.3
2017-04-09T10:01:50.271Z,30.43
2017-04-09T10:02:50.275Z,30.82
2017-04-09T10:03:50.274Z,30.72
2017-04-09T10:04:50.278Z,29.94
2017-04-09T10:05:50.282Z,29.75
2017-04-09T10:06:50.284Z,30.82
2017-04-09T10:07:50.285Z,30.8
2017-04-09T10:08:50.290Z,30.8
2017-04-09T10:09:50.295Z,31.28
2017-04-09T10:10:50.295Z,31.48
2017-04-09T10:11:50.300Z,31.09
2017-04-09T10:12:50.306Z,31.01
2017-04-09T10:13:50.306Z,31.4
2017-04-09T10:14:50.306Z,30.91
2017-04-09T10:15:50.308Z,31.2
2017-04-09T10:16:50.310Z,31.78
2017-04-09T10:17:50.313Z,31.49
2017-04-09T10:18:50.318Z,31.49
2017-04-09T10:19:50.319Z,31.2
2017-04-09T10:20:50.321Z,31.01
2017-04-09T10:21:50.327Z,31.49
2017-04-09T10:22:50.328Z,31.41
2017-04-09T10:23:50.331Z,31.89
2017-04-09T10:24:50.335Z,32.57
2017-04-09T10:25:50.335Z,31.02
2017-04-09T10:26:50.340Z,31.51
2017-04-09T10:27:50.343Z,31.59
2017-04-09T10:28:50.344Z,31.1
2017-04-09T10:29:50.349Z,31.49
2017-04-09T10:30:50.350Z,31.1
2017-04-09T10:31:50.353Z,31.49
2017-04-09T10:32:50.355Z,31.49
2017-04-09T10:33:50.364Z,31.68
2017-04-09T10:34:50.363Z,32.07
2017-04-09T10:35:50.369Z,31.98
2017-04-09T10:36:50.366Z,32.17
2017-04-09T10:37:50.370Z,32.44
2017-04-09T10:38:50.371Z,31.98
2017-04-09T10:39:50.374Z,31.76
2017-04-09T10:40:50.377Z,31.86
2017-04-09T10:41:50.382Z,31.67
2017-04-09T10:42:50.381Z,31.96
2017-04-09T10:43:50.386Z,32.15
2017-04-09T10:44:50.387Z,32.64
2017-04-09T10:45:50.389Z,32.81
2017-04-09T10:46:50.391Z,33.1
2017-04-09T10:47:50.394Z,33.78
2017-04-09T10:48:50.397Z,33.87
2017-04-09T10:49:50.398Z,34.05
2017-04-09T10:50:50.400Z,34.53
2017-04-09T10:51:50.402Z,34.72
2017-04-09T10:52:50.406Z,35.59
2017-04-09T10:53:50.407Z,35.48
2017-04-09T10:54:50.409Z,35.58
2017-04-09T10:55:50.408Z,35.1
2017-04-09T10:56:50.411Z,34.9
2017-04-09T10:57:50.111Z,35.1
2017-04-09T10:58:50.416Z,35.56
2017-04-09T10:59:50.416Z,35.46
2017-04-09T11:00:50.416Z,35.65
2017-04-09T11:01:50.417Z,36.04
2017-04-09T11:02:50.423Z,36.69
2017-04-09T11:03:50.422Z,37.18
2017-04-09T11:04:50.424Z,37.06
2017-04-09T11:05:50.421Z,37.16
2017-04-09T11:06:50.424Z,37.93
2017-04-09T11:07:50.427Z,38.41
2017-04-09T11:08:50.429Z,38.22
2017-04-09T11:09:50.427Z,37.93
2017-04-09T11:10:50.429Z,37.35
2017-04-09T11:11:50.430Z,37.64
2017-04-09T11:12:50.426Z,37.64
2017-04-09T11:13:50.427Z,37.54
2017-04-09T11:14:50.430Z,37.93
2017-04-09T11:15:50.428Z,37.64
2017-04-09T11:16:50.429Z,37.93
2017-04-09T11:17:50.428Z,37.83
2017-04-09T11:18:50.429Z,38.12
2017-04-09T11:19:50.431Z,38.12
2017-04-09T11:20:50.428Z,37.62
2017-04-09T11:21:50.430Z,37.14
2017-04-09T11:22:50.430Z,37.14
2017-04-09T11:23:50.431Z,37.62
2017-04-09T11:24:50.426Z,37.81
2017-04-09T11:25:50.428Z,38.59
2017-04-09T11:26:50.431Z,39.33
2017-04-09T11:27:50.429Z,39.43
2017-04-09T11:28:50.428Z,39.24
2017-04-09T11:29:50.426Z,38.95
2017-04-09T11:30:50.423Z,39.04
2017-04-09T11:31:50.424Z,40.01
2017-04-09T11:32:50.426Z,40.39
2017-04-09T11:33:50.425Z,40.2
2017-04-09T11:34:50.421Z,40.88
2017-04-09T11:35:50.425Z,40.58
2017-04-09T11:36:50.420Z,40.78
2017-04-09T11:37:50.421Z,40.88
2017-04-09T11:38:50.429Z,40.76
2017-04-09T11:39:50.415Z,40.01
2017-04-09T11:40:50.415Z,40.08
2017-04-09T11:41:50.412Z,40.88
2017-04-09T11:42:50.412Z,40.76
2017-04-09T11:43:50.410Z,40.85
2017-04-09T11:44:50.409Z,40.76
2017-04-09T11:45:50.407Z,40.28
2017-04-09T11:46:50.407Z,40.37
2017-04-09T11:47:50.405Z,39.99
2017-04-09T11:48:50.404Z,40.18
2017-04-09T11:49:50.402Z,39.89
2017-04-09T11:50:50.098Z,40.35
2017-04-09T11:51:50.400Z,40.45
2017-04-09T11:52:50.399Z,40.83
2017-04-09T11:53:50.397Z,41.02
2017-04-09T11:54:50.401Z,41.02
2017-04-09T11:55:50.393Z,41.12
2017-04-09T11:56:50.390Z,41.41
2017-04-09T11:57:50.397Z,41.96
2017-04-09T11:58:50.389Z,42.54
2017-04-09T11:59:50.385Z,43.02
2017-04-09T12:00:50.385Z,43.02
2017-04-09T12:01:50.384Z,44.17
2017-04-09T12:02:50.426Z,43.6
2017-04-09T12:03:50.378Z,43.6
2017-04-09T12:04:50.376Z,43.4
2017-04-09T12:05:50.375Z,43.7
2017-04-09T12:06:50.371Z,43.5
2017-04-09T12:07:50.395Z,43.4
2017-04-09T12:08:50.369Z,43.21
2017-04-09T12:09:50.365Z,43.12
2017-04-09T12:10:50.362Z,43.4
2017-04-09T12:11:50.359Z,43.98
2017-04-09T12:12:50.366Z,43.79
2017-04-09T12:13:50.362Z,43.7
2017-04-09T12:14:50.352Z,43.79
2017-04-09T12:15:50.353Z,43.88
2017-04-09T12:16:50.348Z,43.02
2017-04-09T12:17:50.348Z,43.7
2017-04-09T12:18:50.346Z,44.44
2017-04-09T12:19:50.342Z,44.37
2017-04-09T12:20:50.036Z,44.75
2017-04-09T12:21:50.338Z,44.82
2017-04-09T12:22:50.335Z,45.68
2017-04-09T12:23:50.030Z,44.73
2017-04-09T12:24:50.279Z,44.54
2017-04-09T12:25:50.328Z,44.73
2017-04-09T12:26:50.325Z,44.63
2017-04-09T12:27:50.323Z,44.63
2017-04-09T12:28:50.321Z,45.01
2017-04-09T12:29:50.568Z,44.73
2017-04-09T12:30:50.317Z,44.63
2017-04-09T12:31:50.320Z,44.63
2017-04-09T12:32:50.310Z,44.06
2017-04-09T12:33:50.307Z,43.87
2017-04-09T12:34:50.607Z,43.87
2017-04-09T12:35:50.333Z,43.77
2017-04-09T12:36:50.299Z,43.77
2017-04-09T12:37:50.296Z,44.15
2017-04-09T12:38:50.294Z,44.15
2017-04-09T12:39:50.543Z,44.15
2017-04-09T12:40:50.288Z,44.44
2017-04-09T12:41:50.286Z,44.82
2017-04-09T12:42:50.285Z,44.82
2017-04-09T12:43:50.283Z,44.54
2017-04-09T12:44:50.529Z,44.54
2017-04-09T12:45:50.277Z,45.01
2017-04-09T12:46:50.274Z,45.01
2017-04-09T12:47:50.272Z,44.73
2017-04-09T12:48:50.278Z,45.01
2017-04-09T12:49:50.518Z,44.82
2017-04-09T12:50:50.262Z,45.11
2017-04-09T12:51:50.260Z,45.01
2017-04-09T12:52:50.264Z,45.21
2017-04-09T12:53:50.260Z,44.92
2017-04-09T12:54:50.501Z,44.92
2017-04-09T12:55:50.251Z,44.92